Arch, NM

7:54 AM MDT on November 01, 2014 (GMT -0600)
S of ENMU | Change Station
CLOSE
Current Station
Personal Weather Station
Location: Portales, NM
Elevation: 4078 ft
Nearby Weather Stations
Active Advisory: Special Statement

Elev 4078 ft 34.17 °N, 103.35 °W | Updated 2 seconds ago

Clear
Clear
43.2 °F
Feels Like 41 °F
N
4.5
Wind Variable Wind from NNE
Gusts 6.7 mph

Today
High -- | Low -- °F
--% Chance of Precip.
Yesterday
High -- | Low -- °F
Precip. -- in
7:13 AM 6:00 PM
Waxing Gibbous, 66% visible
Pressure 30.24 in
Visibility 10.0 miles
Clouds Few 21000 ft
Windchill 41 °F
Dew Point 31 °F
Humidity 63%
Rainfall 0.00 in
Snow Depth Not available.
UV 0 out of 12
Pollen 4.80 out of 12
Air Quality Not available.
Flu Activity Not available.
METAR KCVS 011258Z AUTO 19005KT 10SM FEW210 03/M01 A3026 RMK AO2 SLP238 T00331009 $

More Conditions Fewer Conditions

Pressure 30.24 in
Visibility 10.0 miles
Clouds Few 21000 ft
Windchill 41 °F
Dew Point 31 °F
Humidity 63%
Rainfall 0.00 in
Snow Depth Not available.
UV 0 out of 12
Pollen 4.80 out of 12
Air Quality Not available.
Flu Activity Not available.
METAR KCVS 011258Z AUTO 19005KT 10SM FEW210 03/M01 A3026 RMK AO2 SLP238 T00331009 $

More Conditions Fewer Conditions

10-Day Weather Forecast

Almanac

Astronomy

Nov. 01, 2014 Rise Set
Actual Time
Civil Twilight
Nautical Twilight
Astronomical Twilight
Moon
Length of Visible Light
Length of Day
Tomorrow will be .
, % of the Moon is Illuminated

Today's Extremes

State Highs State Lows

Community

WunderPhotos

Upload Photos

1,766,937 photos uploaded!

WunderBlogs® & News

Nearby

Air Quality

  Air Quality AQ Index Pollutant
Not available.

Snow Depth

Station Depth Elevation

Earthquake Activity

City Distance Mag. Time & Date
Minimum magnitude displayed is 2.5.

Coastal Water Temperatures

Place Temperature

Nearby Weather Stations